Time;durP1;ratioP1;P1;durP2;ratioP2;P2;SDS_P1;SDS_P2;PMS_P1;PMS_P2;Temp;Humidity;BMP_temperature;BMP_pressure;BME280_temperature;BME280_humidity;BME280_pressure;Samples;Min_cycle;Max_cycle;Signal;HPM_P1;HPM_P2
2022/09/30 00:01:45;;;;;;;0.47;0.47;;;9.70;99.90;;;;;;4992822;28;20541;-77
2022/09/30 00:04:29;;;;;;;0.47;0.47;;;9.80;99.90;;;;;;5007751;28;20395;-78
2022/09/30 00:06:55;;;;;;;0.10;0.10;;;9.80;99.90;;;;;;4992854;28;20021;-78
2022/09/30 00:09:21;;;;;;;0.10;0.10;;;9.80;99.90;;;;;;4975226;28;20482;-79
2022/09/30 00:11:47;;;;;;;0.10;0.10;;;9.90;99.90;;;;;;4991507;28;20386;-80
2022/09/30 00:14:16;;;;;;;0.10;0.10;;;9.90;99.90;;;;;;4991296;28;20022;-77
2022/09/30 00:16:43;;;;;;;0.00;0.00;;;10.00;99.90;;;;;;4975156;28;20038;-76
2022/09/30 00:19:09;;;;;;;2.42;2.33;;;9.70;99.90;;;;;;4992407;28;20390;-77
2022/09/30 00:21:35;;;;;;;0.10;0.10;;;9.70;99.90;;;;;;4975232;28;20054;-77
2022/09/30 00:24:03;;;;;;;0.10;0.10;;;9.70;99.90;;;;;;4992525;28;20022;-77
2022/09/30 00:26:29;;;;;;;0.20;0.20;;;9.50;99.90;;;;;;4998081;28;20395;-77
2022/09/30 00:28:57;;;;;;;0.10;0.10;;;9.60;99.90;;;;;;5007598;28;20030;-76
2022/09/30 00:31:28;;;;;;;0.20;0.20;;;9.50;99.90;;;;;;4991335;28;20023;-78
2022/09/30 00:34:05;;;;;;;0.10;0.10;;;9.40;99.90;;;;;;4992590;28;20034;-78
2022/09/30 00:36:38;;;;;;;0.20;0.20;;;9.50;99.90;;;;;;5007360;28;20014;-78
2022/09/30 00:39:06;;;;;;;0.40;0.40;;;9.40;99.90;;;;;;5007459;28;20030;-78
2022/09/30 00:41:33;;;;;;;0.15;0.15;;;9.40;99.90;;;;;;4991206;28;20023;-78
2022/09/30 00:43:59;;;;;;;0.10;0.10;;;9.50;99.90;;;;;;5007444;28;20058;-77
2022/09/30 00:46:33;;;;;;;0.15;0.15;;;9.50;99.90;;;;;;5007364;28;20061;-77
2022/09/30 00:49:04;;;;;;;0.15;0.15;;;9.60;99.90;;;;;;5007468;28;20049;-77
2022/09/30 00:51:38;;;;;;;0.10;0.10;;;9.60;99.90;;;;;;4993380;28;20023;-78
2022/09/30 00:54:11;;;;;;;0.20;0.20;;;9.50;99.90;;;;;;4995839;28;20405;-80
2022/09/30 00:56:42;;;;;;;0.10;0.10;;;9.60;99.90;;;;;;4994622;28;20053;-77
2022/09/30 00:59:26;;;;;;;0.10;0.10;;;9.60;99.90;;;;;;4995852;28;20022;-78
2022/09/30 01:01:52;;;;;;;0.10;0.10;;;9.70;99.90;;;;;;4995882;28;20022;-77
2022/09/30 01:04:22;;;;;;;0.10;0.10;;;9.80;99.90;;;;;;5010795;28;20030;-78
2022/09/30 01:06:49;;;;;;;0.35;0.35;;;9.80;99.90;;;;;;4978166;28;20023;-81
2022/09/30 01:09:15;;;;;;;0.10;0.10;;;9.70;99.90;;;;;;5010712;28;20065;-78
2022/09/30 01:11:41;;;;;;;0.10;0.10;;;9.70;99.90;;;;;;5010628;28;20030;-77
2022/09/30 01:14:10;;;;;;;0.70;0.70;;;9.70;99.90;;;;;;5010590;28;20031;-77
2022/09/30 01:17:09;;;;;;;0.10;0.10;;;9.70;99.90;;;;;;5010422;28;20019;-78
2022/09/30 01:19:57;;;;;;;0.20;0.20;;;9.80;99.90;;;;;;5010673;28;20065;-77
2022/09/30 01:23:25;;;;;;;0.13;0.13;;;9.60;99.90;;;;;;5010593;28;20030;-78
2022/09/30 01:25:59;;;;;;;0.10;0.10;;;9.50;99.90;;;;;;4934821;29;20028;-78
2022/09/30 01:28:52;;;;;;;0.10;0.10;;;9.60;99.90;;;;;;4985021;28;20045;-78
2022/09/30 01:31:21;;;;;;;0.10;0.10;;;9.60;99.90;;;;;;4995347;28;20027;-78
2022/09/30 01:34:08;;;;;;;0.10;0.10;;;9.60;99.90;;;;;;5010223;28;20117;-78
2022/09/30 01:37:03;;;;;;;0.10;0.10;;;9.70;99.90;;;;;;5010128;28;20022;-77
2022/09/30 01:39:58;;;;;;;0.03;0.03;;;9.60;99.90;;;;;;4986669;28;20096;-77
2022/09/30 01:42:30;;;;;;;0.00;0.00;;;9.70;99.90;;;;;;4993854;28;20030;-77
2022/09/30 01:45:14;;;;;;;2.05;1.17;;;9.80;99.90;;;;;;5009795;28;20026;-78
2022/09/30 01:47:59;;;;;;;0.38;0.38;;;9.80;99.90;;;;;;5010121;28;20022;-77
2022/09/30 01:50:54;;;;;;;0.10;0.10;;;9.80;99.90;;;;;;5009999;28;20225;-78
2022/09/30 01:53:59;;;;;;;0.10;0.10;;;9.80;99.90;;;;;;5001934;28;20041;-78
2022/09/30 01:56:34;;;;;;;0.10;0.10;;;9.80;99.90;;;;;;4992724;28;20081;-79
2022/09/30 01:59:08;;;;;;;0.10;0.10;;;9.90;99.90;;;;;;4993468;28;20041;-78
2022/09/30 02:01:57;;;;;;;0.10;0.10;;;9.90;99.90;;;;;;4993325;28;20026;-77
2022/09/30 02:04:33;;;;;;;0.10;0.10;;;9.70;99.90;;;;;;5009796;28;20033;-77
2022/09/30 02:07:06;;;;;;;0.10;0.10;;;9.70;99.90;;;;;;5009691;28;20729;-77
2022/09/30 02:09:40;;;;;;;0.15;0.15;;;9.50;99.90;;;;;;4994542;28;20063;-77
2022/09/30 02:12:10;;;;;;;2.75;2.60;;;9.50;99.90;;;;;;4994533;28;20025;-78
2022/09/30 02:14:48;;;;;;;0.10;0.10;;;9.60;99.90;;;;;;4994461;28;20027;-77
2022/09/30 02:17:20;;;;;;;0.10;0.10;;;9.70;99.90;;;;;;4994516;28;20386;-78
2022/09/30 02:20:03;;;;;;;0.10;0.10;;;9.80;99.90;;;;;;4977018;28;20088;-78
2022/09/30 02:22:42;;;;;;;0.10;0.10;;;9.80;99.90;;;;;;4993153;28;20018;-77
2022/09/30 02:25:14;;;;;;;0.90;0.90;;;9.80;99.90;;;;;;5009111;28;20030;-79
2022/09/30 02:27:47;;;;;;;0.10;0.10;;;9.80;99.90;;;;;;5009234;28;20034;-78
2022/09/30 02:30:13;;;;;;;0.10;0.10;;;9.80;99.90;;;;;;5009314;28;20494;-77
2022/09/30 02:32:51;;;;;;;0.10;0.10;;;9.80;99.90;;;;;;4994076;28;20022;-78
2022/09/30 02:35:25;;;;;;;0.08;0.08;;;9.70;99.90;;;;;;4993789;28;20073;-77
2022/09/30 02:38:14;;;;;;;0.10;0.10;;;9.70;99.90;;;;;;4994065;28;20394;-77
2022/09/30 02:40:42;;;;;;;0.10;0.10;;;9.60;99.90;;;;;;4997275;28;20040;-78
2022/09/30 02:43:09;;;;;;;0.00;0.00;;;9.70;99.90;;;;;;5008938;28;20574;-78
2022/09/30 02:45:58;;;;;;;0.10;0.10;;;9.60;99.90;;;;;;4993630;28;20449;-78
2022/09/30 02:48:37;;;;;;;0.05;0.05;;;9.70;99.90;;;;;;4954780;28;20137;-78
2022/09/30 02:51:21;;;;;;;0.10;0.10;;;9.80;99.90;;;;;;4993671;28;20015;-77
2022/09/30 02:54:11;;;;;;;0.10;0.10;;;9.80;99.90;;;;;;5008741;28;20046;-78
2022/09/30 02:56:52;;;;;;;0.10;0.10;;;9.80;99.90;;;;;;4993514;28;20018;-78
2022/09/30 02:59:18;;;;;;;0.05;0.05;;;9.70;99.90;;;;;;4993618;28;20023;-77
2022/09/30 03:01:44;;;;;;;0.10;0.10;;;9.70;99.90;;;;;;4993579;28;20105;-78
2022/09/30 03:04:14;;;;;;;0.10;0.10;;;9.70;99.90;;;;;;4992235;28;20050;-77
2022/09/30 03:06:40;;;;;;;0.10;0.10;;;9.50;99.90;;;;;;4992325;28;20486;-79
2022/09/30 03:09:07;;;;;;;0.10;0.10;;;9.50;99.90;;;;;;5008504;28;20030;-77
2022/09/30 03:11:34;;;;;;;0.10;0.10;;;9.60;99.90;;;;;;4993385;28;20404;-78
2022/09/30 03:14:38;;;;;;;0.10;0.10;;;9.70;99.90;;;;;;5007960;28;20393;-79
2022/09/30 03:17:28;;;;;;;0.10;0.10;;;9.60;99.90;;;;;;4993192;28;20504;-78
2022/09/30 03:20:31;;;;;;;0.10;0.10;;;9.60;99.90;;;;;;5008417;28;20118;-78
2022/09/30 03:23:03;;;;;;;0.10;0.10;;;9.70;99.90;;;;;;5008215;28;20036;-76
2022/09/30 03:25:35;;;;;;;0.10;0.10;;;9.70;99.90;;;;;;5008014;28;20378;-79
2022/09/30 03:28:29;;;;;;;0.10;0.10;;;9.70;99.90;;;;;;4993126;28;20026;-79
2022/09/30 03:31:21;;;;;;;0.10;0.10;;;9.60;99.90;;;;;;4993292;28;20032;-78
2022/09/30 03:33:53;;;;;;;0.10;0.10;;;9.70;99.90;;;;;;4993104;28;20018;-80
2022/09/30 03:36:40;;;;;;;0.10;0.10;;;9.70;99.90;;;;;;5008123;28;20038;-78
2022/09/30 03:39:34;;;;;;;0.10;0.10;;;9.70;99.90;;;;;;5008109;28;20037;-78
2022/09/30 03:42:36;;;;;;;0.13;0.13;;;9.70;99.90;;;;;;5008117;28;20034;-78
2022/09/30 03:45:22;;;;;;;;;;;9.40;99.90;;;;;;4995653;28;20394;-78
2022/09/30 03:47:52;;;;;;;0.10;0.10;;;9.50;99.90;;;;;;5008783;28;19909;-76
2022/09/30 03:50:21;;;;;;;0.10;0.10;;;9.50;99.90;;;;;;4992832;28;20054;-77
2022/09/30 03:52:48;;;;;;;0.20;0.20;;;9.50;99.90;;;;;;4992780;28;20026;-75
2022/09/30 03:55:15;;;;;;;0.10;0.10;;;9.50;99.90;;;;;;5007555;28;20022;-76
2022/09/30 03:57:43;;;;;;;0.10;0.10;;;9.50;99.90;;;;;;5008033;28;20553;-76
2022/09/30 04:00:11;;;;;;;0.88;0.73;;;9.30;99.90;;;;;;5007846;28;20027;-76
2022/09/30 04:02:37;;;;;;;0.10;0.10;;;9.40;99.90;;;;;;4991440;28;20027;-75
2022/09/30 04:05:04;;;;;;;0.10;0.10;;;9.50;99.90;;;;;;4992408;28;20041;-76
2022/09/30 04:07:31;;;;;;;0.10;0.10;;;9.50;99.90;;;;;;5007847;28;20410;-77
2022/09/30 04:09:57;;;;;;;0.00;0.00;;;9.50;99.90;;;;;;4992789;28;20019;-75
2022/09/30 04:12:22;;;;;;;0.00;0.00;;;9.50;99.90;;;;;;4975142;28;20034;-76
2022/09/30 04:14:48;;;;;;;0.10;0.10;;;9.40;99.90;;;;;;4991288;28;20553;-82
2022/09/30 04:17:14;;;;;;;0.00;0.00;;;9.40;99.90;;;;;;5007455;28;20042;-76
2022/09/30 04:19:40;;;;;;;0.00;0.00;;;9.50;99.90;;;;;;4992585;28;20093;-76
2022/09/30 04:22:07;;;;;;;0.10;0.10;;;9.50;99.90;;;;;;4992637;28;20057;-77
2022/09/30 04:24:34;;;;;;;0.10;0.10;;;9.60;99.90;;;;;;4974917;28;20030;-76
2022/09/30 04:27:00;;;;;;;0.08;0.08;;;9.60;99.90;;;;;;4994570;28;20026;-76
2022/09/30 04:29:26;;;;;;;2.90;1.65;;;9.60;99.90;;;;;;4996382;28;20383;-76
2022/09/30 04:31:52;;;;;;;0.10;0.10;;;9.60;99.90;;;;;;5008949;28;20626;-76
2022/09/30 04:34:18;;;;;;;0.10;0.10;;;9.50;99.90;;;;;;5008593;28;20026;-76
2022/09/30 04:36:43;;;;;;;0.10;0.10;;;9.30;99.90;;;;;;5006053;28;20419;-75
2022/09/30 04:39:09;;;;;;;0.20;0.20;;;9.20;99.90;;;;;;4991961;28;20022;-77
2022/09/30 04:41:35;;;;;;;2.47;1.95;;;9.10;99.90;;;;;;4999099;28;20027;-77
2022/09/30 04:44:05;;;;;;;0.10;0.10;;;9.10;99.90;;;;;;5000759;28;20037;-82
2022/09/30 04:46:33;;;;;;;0.10;0.10;;;9.10;99.90;;;;;;4967917;28;20041;-77
2022/09/30 04:48:59;;;;;;;0.10;0.10;;;9.00;99.90;;;;;;5001534;28;20141;-77
2022/09/30 04:51:26;;;;;;;0.10;0.10;;;9.10;99.90;;;;;;4983695;28;20030;-79
2022/09/30 04:53:52;;;;;;;0.10;0.10;;;9.10;99.90;;;;;;4986504;28;20018;-76
2022/09/30 04:56:18;;;;;;;0.10;0.10;;;9.10;99.90;;;;;;5000780;28;20035;-76
2022/09/30 04:58:44;;;;;;;0.10;0.10;;;9.30;99.90;;;;;;4986065;28;20182;-77
2022/09/30 05:01:15;;;;;;;1.08;1.08;;;9.10;99.90;;;;;;4985003;28;20038;-77
2022/09/30 05:03:45;;;;;;;0.20;0.20;;;9.20;99.90;;;;;;5000421;28;20045;-77
2022/09/30 05:06:13;;;;;;;0.10;0.10;;;9.10;99.90;;;;;;4966383;28;20049;-77
2022/09/30 05:08:39;;;;;;;1.55;1.55;;;9.20;99.90;;;;;;5000408;28;20650;-77
2022/09/30 05:11:09;;;;;;;0.10;0.10;;;9.20;99.90;;;;;;4985756;28;20069;-77
2022/09/30 05:13:38;;;;;;;0.10;0.10;;;9.20;99.90;;;;;;4999097;28;20081;-79
2022/09/30 05:16:05;;;;;;;0.10;0.10;;;9.30;99.90;;;;;;4983770;28;20102;-76
2022/09/30 05:18:33;;;;;;;0.10;0.10;;;9.30;99.90;;;;;;4997645;28;20062;-83
2022/09/30 05:20:59;;;;;;;0.30;0.30;;;9.30;99.90;;;;;;4983977;28;20406;-77
2022/09/30 05:23:27;;;;;;;0.10;0.10;;;9.20;99.90;;;;;;4966847;28;20029;-77
2022/09/30 05:25:53;;;;;;;0.10;0.10;;;9.20;99.90;;;;;;4983086;28;20030;-77
2022/09/30 05:28:19;;;;;;;0.10;0.10;;;9.30;99.90;;;;;;4984504;28;20026;-80
2022/09/30 05:30:45;;;;;;;0.10;0.10;;;9.10;99.90;;;;;;4984722;28;20542;-79
2022/09/30 05:33:12;;;;;;;0.10;0.10;;;9.20;99.90;;;;;;4966526;28;20022;-80
2022/09/30 05:35:40;;;;;;;0.10;0.10;;;9.20;99.90;;;;;;4984074;28;20053;-77
2022/09/30 05:38:06;;;;;;;2.22;2.03;;;9.10;99.90;;;;;;4998989;28;20027;-79
2022/09/30 05:40:33;;;;;;;0.10;0.10;;;9.10;99.90;;;;;;4985648;28;20130;-78
2022/09/30 05:42:59;;;;;;;0.00;0.00;;;9.10;99.90;;;;;;4999593;28;21621;-77
2022/09/30 05:45:26;;;;;;;1.90;1.65;;;9.00;99.90;;;;;;4983768;28;20105;-78
2022/09/30 05:47:55;;;;;;;0.10;0.10;;;8.90;99.90;;;;;;4983196;28;20388;-82
2022/09/30 05:50:23;;;;;;;0.10;0.10;;;8.80;99.90;;;;;;4999301;28;20037;-78
2022/09/30 05:52:48;;;;;;;0.20;0.20;;;8.80;99.90;;;;;;4983476;28;20026;-78
2022/09/30 05:55:19;;;;;;;0.10;0.10;;;8.80;99.90;;;;;;4999426;28;20533;-77
2022/09/30 05:57:49;;;;;;;0.30;0.30;;;8.90;99.90;;;;;;4983305;28;20200;-77
2022/09/30 06:00:16;;;;;;;0.10;0.10;;;8.90;99.90;;;;;;4984541;28;20022;-79
2022/09/30 06:02:43;;;;;;;0.10;0.10;;;8.70;99.90;;;;;;4983549;28;20687;-77
2022/09/30 06:05:09;;;;;;;0.32;0.32;;;8.80;99.90;;;;;;4984248;28;20026;-78
2022/09/30 06:07:36;;;;;;;0.35;0.32;;;8.90;99.90;;;;;;4984065;28;20141;-77
2022/09/30 06:10:10;;;;;;;0.10;0.10;;;8.90;99.90;;;;;;4982139;28;20049;-76
2022/09/30 06:12:37;;;;;;;0.20;0.20;;;8.90;99.90;;;;;;4999053;28;20084;-80
2022/09/30 06:15:04;;;;;;;1.25;1.25;;;8.80;99.90;;;;;;4983691;28;20084;-78
2022/09/30 06:17:30;;;;;;;0.10;0.10;;;8.90;99.90;;;;;;4983349;28;20030;-79
2022/09/30 06:19:56;;;;;;;0.38;0.35;;;8.90;99.90;;;;;;4998613;28;20049;-80
2022/09/30 06:22:21;;;;;;;1.35;1.00;;;8.90;99.90;;;;;;4983073;28;20084;-80
2022/09/30 06:24:47;;;;;;;0.30;0.30;;;9.00;99.90;;;;;;4985723;28;20040;-79
2022/09/30 06:27:13;;;;;;;0.10;0.10;;;9.00;99.90;;;;;;4984839;28;20030;-77
2022/09/30 06:29:39;;;;;;;0.10;0.10;;;8.90;99.90;;;;;;4998496;28;20528;-77
2022/09/30 06:32:06;;;;;;;1.55;0.90;;;9.00;99.90;;;;;;4999897;28;20030;-77
2022/09/30 06:34:32;;;;;;;0.63;0.25;;;8.90;99.90;;;;;;4998631;28;20220;-77
2022/09/30 06:36:58;;;;;;;0.10;0.10;;;8.90;99.90;;;;;;4996847;28;21426;-77
2022/09/30 06:39:25;;;;;;;4.13;1.00;;;9.00;99.90;;;;;;4982220;28;20030;-78
2022/09/30 06:41:51;;;;;;;0.10;0.10;;;9.10;99.90;;;;;;4998199;28;20058;-78
2022/09/30 06:44:17;;;;;;;0.32;0.32;;;9.20;99.90;;;;;;4996877;28;20061;-79
2022/09/30 06:46:43;;;;;;;0.10;0.10;;;9.20;99.90;;;;;;4982430;28;20406;-79
2022/09/30 06:49:09;;;;;;;4.40;1.27;;;9.20;99.90;;;;;;4979795;28;20022;-82
2022/09/30 06:51:35;;;;;;;0.20;0.20;;;9.30;99.90;;;;;;4980352;28;20027;-82
2022/09/30 06:54:00;;;;;;;0.10;0.10;;;9.40;99.90;;;;;;4963813;28;20431;-80
2022/09/30 06:56:27;;;;;;;0.10;0.10;;;9.40;99.90;;;;;;4982420;28;20042;-78
2022/09/30 06:58:55;;;;;;;0.10;0.10;;;9.40;99.90;;;;;;4981254;28;20062;-80
2022/09/30 07:01:23;;;;;;;0.10;0.10;;;9.60;99.90;;;;;;4963558;28;20048;-78
2022/09/30 07:03:56;;;;;;;0.38;0.38;;;9.70;99.90;;;;;;4996351;28;20045;-80
2022/09/30 07:06:24;;;;;;;0.10;0.10;;;9.70;99.90;;;;;;4982709;28;20486;-79
2022/09/30 07:08:50;;;;;;;0.10;0.10;;;9.50;99.90;;;;;;4995839;28;20045;-79
2022/09/30 07:11:16;;;;;;;0.10;0.10;;;9.60;99.90;;;;;;4980450;28;20038;-80
2022/09/30 07:13:44;;;;;;;0.10;0.10;;;9.60;99.90;;;;;;4980044;28;20390;-80
2022/09/30 07:16:12;;;;;;;0.30;0.30;;;9.60;99.90;;;;;;4996360;28;20034;-79
2022/09/30 07:18:41;;;;;;;0.17;0.17;;;9.70;99.90;;;;;;4980953;28;20042;-77
2022/09/30 07:21:07;;;;;;;1.02;0.98;;;9.90;99.90;;;;;;4980033;28;20069;-76
2022/09/30 07:23:33;;;;;;;0.10;0.10;;;9.80;99.90;;;;;;4980553;28;20132;-76
2022/09/30 07:26:03;;;;;;;0.10;0.10;;;9.70;99.90;;;;;;4981462;28;20113;-74
2022/09/30 07:28:32;;;;;;;1.15;0.65;;;9.70;99.90;;;;;;4996850;28;20711;-76
2022/09/30 07:31:02;;;;;;;0.10;0.10;;;9.80;99.90;;;;;;4982167;28;20035;-76
2022/09/30 07:33:30;;;;;;;0.35;0.35;;;9.80;99.90;;;;;;4981492;28;20383;-76
2022/09/30 07:35:57;;;;;;;0.10;0.10;;;9.70;99.90;;;;;;4964592;28;20495;-76
2022/09/30 07:38:26;;;;;;;0.75;0.75;;;9.80;99.90;;;;;;4982088;28;20454;-80
2022/09/30 07:40:57;;;;;;;0.10;0.10;;;10.00;99.90;;;;;;4979059;28;20476;-80
2022/09/30 07:43:24;;;;;;;0.10;0.10;;;10.10;99.90;;;;;;4980258;28;20495;-77
2022/09/30 07:45:50;;;;;;;0.30;0.30;;;10.20;99.90;;;;;;4979450;28;20137;-78
2022/09/30 07:51:00;;;;;;;0.10;0.10;;;10.20;99.90;;;;;;4981267;28;20106;-78
2022/09/30 07:53:26;;;;;;;0.10;0.10;;;10.30;99.90;;;;;;4981619;28;20067;-78
2022/09/30 07:55:52;;;;;;;0.20;0.20;;;10.40;99.90;;;;;;4981287;28;20038;-80
2022/09/30 07:58:18;;;;;;;0.10;0.10;;;10.40;99.90;;;;;;4981058;28;20536;-77
2022/09/30 08:00:48;;;;;;;0.10;0.10;;;10.50;99.90;;;;;;4982622;28;20561;-81
2022/09/30 08:03:13;;;;;;;0.20;0.20;;;10.70;99.90;;;;;;4985274;28;20455;-82
2022/09/30 08:05:43;;;;;;;0.10;0.10;;;10.80;99.90;;;;;;4983625;28;20031;-79
2022/09/30 08:08:10;;;;;;;1.25;0.52;;;10.80;99.90;;;;;;4985306;28;20068;-77
2022/09/30 08:10:36;;;;;;;0.20;0.20;;;10.90;99.90;;;;;;4982948;28;20395;-76
2022/09/30 08:13:02;;;;;;;0.40;0.40;;;10.60;99.90;;;;;;4984660;28;20026;-76
2022/09/30 08:15:27;;;;;;;0.10;0.10;;;10.70;99.90;;;;;;4984189;28;20738;-77
2022/09/30 08:17:53;;;;;;;1.00;0.85;;;10.70;99.90;;;;;;4999691;28;20072;-78
2022/09/30 08:20:19;;;;;;;0.10;0.10;;;10.90;99.90;;;;;;4982951;28;20044;-79
2022/09/30 08:22:45;;;;;;;0.10;0.10;;;11.00;99.90;;;;;;4984624;28;20039;-79
2022/09/30 08:25:11;;;;;;;0.20;0.20;;;11.00;99.90;;;;;;4998803;28;20037;-80
2022/09/30 08:27:37;;;;;;;0.10;0.10;;;11.30;99.90;;;;;;4983769;28;20101;-81
2022/09/30 08:30:04;;;;;;;0.20;0.20;;;11.30;99.90;;;;;;4984773;28;20034;-80
2022/09/30 08:32:31;;;;;;;0.40;0.40;;;11.40;99.90;;;;;;4999580;28;20081;-77
2022/09/30 08:34:56;;;;;;;0.10;0.10;;;11.30;99.90;;;;;;4982663;28;20034;-80
2022/09/30 08:37:23;;;;;;;0.10;0.10;;;11.30;99.90;;;;;;4985507;28;20045;-80
2022/09/30 08:39:49;;;;;;;3.17;3.03;;;11.40;99.90;;;;;;4966759;28;20039;-79
2022/09/30 08:42:27;;;;;;;0.35;0.35;;;11.40;99.90;;;;;;4983362;28;20038;-81
2022/09/30 08:45:01;;;;;;;0.10;0.10;;;11.50;99.90;;;;;;4983141;28;20585;-81
2022/09/30 08:47:35;;;;;;;1.25;1.25;;;11.60;99.90;;;;;;4982965;28;20037;-78
2022/09/30 08:50:22;;;;;;;0.22;0.22;;;11.60;99.90;;;;;;4997737;28;20034;-81
2022/09/30 08:52:57;;;;;;;0.30;0.30;;;11.70;99.90;;;;;;4999712;28;20185;-78
2022/09/30 08:55:32;;;;;;;6.53;1.33;;;11.60;99.90;;;;;;4981522;28;20662;-79
2022/09/30 08:58:01;;;;;;;0.85;0.85;;;11.70;99.90;;;;;;4984376;28;20602;-81
2022/09/30 09:00:27;;;;;;;0.10;0.10;;;12.30;99.90;;;;;;4981931;28;20054;-77
2022/09/30 09:02:56;;;;;;;2.22;0.77;;;12.70;99.90;;;;;;4982120;28;20092;-78
2022/09/30 09:05:41;;;;;;;0.50;0.50;;;13.00;99.90;;;;;;4997660;28;20034;-81
2022/09/30 09:08:16;;;;;;;1.33;0.95;;;13.20;99.90;;;;;;4998914;28;20018;-78
2022/09/30 09:10:45;;;;;;;0.10;0.10;;;13.30;99.90;;;;;;4980710;28;20113;-78
2022/09/30 09:13:36;;;;;;;1.00;0.80;;;13.10;99.90;;;;;;4980568;28;20038;-78
2022/09/30 09:16:02;;;;;;;1.30;1.13;;;13.70;99.90;;;;;;4982696;28;20038;-78
2022/09/30 09:18:46;;;;;;;0.10;0.10;;;13.80;99.90;;;;;;4999049;28;20046;-78
2022/09/30 09:21:55;;;;;;;0.10;0.10;;;14.30;99.90;;;;;;4998684;28;20030;-78
2022/09/30 09:24:32;;;;;;;0.20;0.20;;;14.30;99.90;;;;;;4998317;28;20097;-78
2022/09/30 09:26:59;;;;;;;0.10;0.10;;;13.80;99.90;;;;;;4998386;28;20088;-79
2022/09/30 09:29:41;;;;;;;0.10;0.10;;;13.40;99.90;;;;;;4982450;28;20069;-77
2022/09/30 09:32:19;;;;;;;0.10;0.10;;;13.20;99.90;;;;;;4983155;28;20502;-78
2022/09/30 09:34:51;;;;;;;0.10;0.10;;;13.10;99.90;;;;;;4984102;28;20030;-78
2022/09/30 09:38:23;;;;;;;0.10;0.10;;;12.80;99.90;;;;;;4966333;28;20038;-77
2022/09/30 09:40:42;;;;;;;0.35;0.35;;;12.90;99.90;;;;;;4982209;28;20513;-78
2022/09/30 09:43:42;;;;;;;2.55;1.67;;;12.90;99.90;;;;;;4982543;28;20041;-77
2022/09/30 09:46:25;;;;;;;0.17;0.17;;;12.80;99.90;;;;;;4929888;28;20415;-77
2022/09/30 09:49:12;;;;;;;2.17;1.27;;;12.80;99.90;;;;;;4993040;28;20036;-79
2022/09/30 09:51:50;;;;;;;0.10;0.10;;;12.80;99.90;;;;;;4993364;28;20042;-78
2022/09/30 09:54:19;;;;;;;0.43;0.43;;;12.90;99.90;;;;;;4994069;28;20031;-78
2022/09/30 09:56:45;;;;;;;0.85;0.57;;;13.00;99.90;;;;;;4993136;28;20018;-77
2022/09/30 09:59:17;;;;;;;0.20;0.20;;;13.20;99.90;;;;;;4992925;28;20073;-77
2022/09/30 10:02:20;;;;;;;0.10;0.10;;;13.20;99.90;;;;;;4976990;28;20104;-77
2022/09/30 10:04:58;;;;;;;0.20;0.20;;;13.10;99.90;;;;;;4994697;28;20639;-81
2022/09/30 10:07:26;;;;;;;0.80;0.55;;;13.40;99.90;;;;;;5008928;28;20042;-79
2022/09/30 10:10:16;;;;;;;0.47;0.38;;;13.70;99.90;;;;;;4992969;28;20033;-77
2022/09/30 10:12:42;;;;;;;0.40;0.40;;;14.30;99.90;;;;;;5009115;28;20161;-78
2022/09/30 10:15:17;;;;;;;0.20;0.20;;;15.20;99.90;;;;;;5009029;28;20030;-78
2022/09/30 10:17:51;;;;;;;0.15;0.15;;;16.30;99.90;;;;;;5009021;28;20022;-77
2022/09/30 10:20:35;;;;;;;0.10;0.10;;;16.20;99.90;;;;;;4976611;28;20023;-78
2022/09/30 10:23:27;;;;;;;3.47;0.75;;;15.60;99.90;;;;;;4992722;28;20022;-79
2022/09/30 10:25:58;;;;;;;3.78;2.85;;;14.70;99.90;;;;;;5008889;28;20156;-77
2022/09/30 10:28:27;;;;;;;0.10;0.10;;;14.50;99.90;;;;;;4994100;28;20109;-78
2022/09/30 10:31:15;;;;;;;0.70;0.65;;;14.20;99.90;;;;;;5009006;28;20410;-78
2022/09/30 10:33:47;;;;;;;0.13;0.13;;;13.90;99.90;;;;;;4992300;28;20019;-79
2022/09/30 10:36:17;;;;;;;0.10;0.10;;;14.00;99.90;;;;;;4977531;28;20026;-78
2022/09/30 10:38:57;;;;;;;0.45;0.45;;;14.60;99.90;;;;;;5017090;28;20037;-77
2022/09/30 10:41:29;;;;;;;2.95;2.75;;;14.90;99.90;;;;;;5007014;28;20410;-77
2022/09/30 10:43:58;;;;;;;0.63;0.63;;;15.00;99.90;;;;;;5011919;28;20026;-77
2022/09/30 10:46:32;;;;;;;2.55;1.40;;;15.10;99.90;;;;;;4992806;28;20030;-78
2022/09/30 10:48:59;;;;;;;0.20;0.20;;;15.30;99.90;;;;;;5008399;28;20041;-80
2022/09/30 10:51:33;;;;;;;0.30;0.30;;;15.40;99.90;;;;;;4991895;28;20482;-78
2022/09/30 10:54:00;;;;;;;2.42;2.28;;;15.50;99.90;;;;;;4993025;28;20033;-78
2022/09/30 10:56:36;;;;;;;24.20;1.58;;;15.20;99.90;;;;;;4993173;28;20105;-80
2022/09/30 10:59:04;;;;;;;1.08;0.93;;;15.40;99.90;;;;;;4991862;28;20026;-79
2022/09/30 11:01:37;;;;;;;0.82;0.82;;;15.50;99.90;;;;;;4991861;28;20459;-79
2022/09/30 11:04:23;;;;;;;0.63;0.60;;;15.40;99.90;;;;;;4991469;28;20022;-78
2022/09/30 11:06:54;;;;;;;1.73;1.63;;;15.00;99.90;;;;;;4989522;28;20026;-78
2022/09/30 11:09:44;;;;;;;0.10;0.10;;;14.50;99.90;;;;;;4989998;28;20054;-79
2022/09/30 11:12:18;;;;;;;0.45;0.45;;;14.50;99.90;;;;;;4994038;28;20023;-78
2022/09/30 11:15:12;;;;;;;0.10;0.10;;;14.50;99.90;;;;;;5006452;28;20014;-78
2022/09/30 11:18:04;;;;;;;1.00;0.60;;;14.60;99.90;;;;;;4975145;28;20050;-78
2022/09/30 11:20:44;;;;;;;0.30;0.30;;;14.60;99.90;;;;;;5003051;28;20121;-77
2022/09/30 11:23:31;;;;;;;0.28;0.28;;;14.70;99.90;;;;;;4994845;28;20247;-78
2022/09/30 11:26:11;;;;;;;0.63;0.63;;;14.90;99.90;;;;;;5012273;28;20026;-78
2022/09/30 11:29:15;;;;;;;0.25;0.25;;;14.90;99.90;;;;;;4994586;28;20495;-77
2022/09/30 11:31:55;;;;;;;0.10;0.10;;;14.90;99.90;;;;;;4958561;28;20064;-79
2022/09/30 11:34:47;;;;;;;0.20;0.20;;;15.00;99.90;;;;;;4972798;28;20050;-79
2022/09/30 11:37:20;;;;;;;0.98;0.98;;;15.20;99.90;;;;;;4971923;28;20031;-78
2022/09/30 11:40:15;;;;;;;0.10;0.10;;;15.20;99.90;;;;;;4988203;28;20034;-77
2022/09/30 11:43:02;;;;;;;0.30;0.30;;;15.20;99.90;;;;;;4987860;28;20521;-77
2022/09/30 11:45:49;;;;;;;0.20;0.20;;;14.90;99.90;;;;;;5010869;28;20018;-78
2022/09/30 11:48:42;;;;;;;0.10;0.10;;;14.70;99.90;;;;;;5027215;28;20021;-79
2022/09/30 11:51:17;;;;;;;0.43;0.43;;;14.70;99.90;;;;;;4994718;28;20153;-77
2022/09/30 11:54:07;;;;;;;0.20;0.20;;;14.30;99.90;;;;;;5027650;28;20049;-79
2022/09/30 11:56:42;;;;;;;0.20;0.20;;;14.10;99.90;;;;;;5027378;28;20466;-77
2022/09/30 11:59:25;;;;;;;0.10;0.10;;;14.00;99.90;;;;;;5010946;28;20049;-79
2022/09/30 12:01:56;;;;;;;0.10;0.10;;;14.10;99.90;;;;;;4995025;28;20024;-80
2022/09/30 12:04:30;;;;;;;0.20;0.20;;;14.10;99.90;;;;;;5012099;28;20433;-78
2022/09/30 12:07:42;;;;;;;0.40;0.40;;;14.10;99.90;;;;;;5010734;28;20026;-78
2022/09/30 12:10:32;;;;;;;0.75;0.75;;;14.10;99.90;;;;;;4932323;29;20028;-77
2022/09/30 12:13:09;;;;;;;0.10;0.10;;;14.30;99.90;;;;;;4994527;28;20385;-78
2022/09/30 12:15:36;;;;;;;0.43;0.43;;;14.10;99.90;;;;;;5011102;28;20021;-78
2022/09/30 12:18:12;;;;;;;0.10;0.10;;;14.20;99.90;;;;;;5011119;28;20050;-80
2022/09/30 12:20:45;;;;;;;0.28;0.28;;;14.20;99.90;;;;;;5011898;28;20382;-79
2022/09/30 12:23:29;;;;;;;0.68;0.52;;;14.00;99.90;;;;;;4994175;28;20030;-79
2022/09/30 12:25:57;;;;;;;2.58;1.95;;;13.80;99.90;;;;;;5010538;28;20030;-76
2022/09/30 12:31:45;;;;;;;0.10;0.10;;;13.80;99.90;;;;;;5010482;28;20483;-77
2022/09/30 12:34:23;;;;;;;0.28;0.28;;;13.70;99.90;;;;;;5027066;28;20076;-77
2022/09/30 12:37:27;;;;;;;1.08;0.40;;;13.60;99.90;;;;;;5027373;28;20117;-76
2022/09/30 12:39:52;;;;;;;0.10;0.10;;;13.60;99.90;;;;;;5027027;28;20022;-77
2022/09/30 12:42:32;;;;;;;0.20;0.20;;;13.70;99.90;;;;;;5026865;28;20048;-77
2022/09/30 12:45:29;;;;;;;0.10;0.10;;;13.80;99.90;;;;;;5026896;28;20080;-78
2022/09/30 12:48:05;;;;;;;0.10;0.10;;;13.90;99.90;;;;;;5029978;28;20033;-76
2022/09/30 12:50:39;;;;;;;0.10;0.10;;;13.90;99.90;;;;;;5015735;28;20072;-76
2022/09/30 12:53:24;;;;;;;0.22;0.22;;;14.00;99.90;;;;;;4997539;28;20026;-76
2022/09/30 12:55:51;;;;;;;0.40;0.40;;;14.10;99.90;;;;;;4997287;28;20022;-76
2022/09/30 12:58:25;;;;;;;0.32;0.32;;;14.10;99.90;;;;;;4997549;28;20083;-78
2022/09/30 13:01:05;;;;;;;1.67;1.58;;;14.10;99.90;;;;;;4997435;28;20028;-77
2022/09/30 13:04:03;;;;;;;0.52;0.52;;;14.10;99.90;;;;;;4997262;28;20018;-76
2022/09/30 13:06:44;;;;;;;0.17;0.17;;;14.00;99.90;;;;;;4976497;28;20037;-77
2022/09/30 13:09:16;;;;;;;0.28;0.28;;;14.00;99.90;;;;;;5030293;28;20030;-76
2022/09/30 13:11:54;;;;;;;;;;;14.00;99.90;;;;;;5030496;28;20072;-78
2022/09/30 13:14:33;;;;;;;0.10;0.10;;;14.10;99.90;;;;;;5014960;28;19963;-76
2022/09/30 13:17:05;;;;;;;0.32;0.30;;;14.00;99.90;;;;;;5013658;28;20037;-77
2022/09/30 13:19:51;;;;;;;;;;;14.00;99.90;;;;;;5015002;28;20096;-77
2022/09/30 13:22:17;;;;;;;0.60;0.60;;;14.10;99.90;;;;;;5013332;28;19928;-77
2022/09/30 13:24:59;;;;;;;0.15;0.15;;;14.30;99.90;;;;;;5014660;28;20022;-78
2022/09/30 13:27:44;;;;;;;;;;;14.20;99.90;;;;;;5030552;28;20040;-78
2022/09/30 13:30:14;;;;;;;0.20;0.20;;;14.20;99.90;;;;;;5013589;28;19913;-77
2022/09/30 13:32:46;;;;;;;0.20;0.20;;;14.40;99.90;;;;;;5029840;28;20478;-77
2022/09/30 13:35:32;;;;;;;0.20;0.20;;;14.40;99.90;;;;;;5013278;28;20037;-78